createdAt,value
2018-07-30T00:01:35.001Z,86.40
2018-07-30T00:04:03.589Z,86.80
2018-07-30T00:06:31.969Z,87.40
2018-07-30T00:09:00.381Z,87.70
2018-07-30T00:11:28.913Z,88.00
2018-07-30T00:13:57.376Z,88.50
2018-07-30T00:16:26.229Z,89.10
2018-07-30T00:18:54.858Z,89.60
2018-07-30T00:21:23.240Z,90.10
2018-07-30T00:23:51.672Z,90.40
2018-07-30T00:26:20.237Z,90.70
2018-07-30T00:28:48.629Z,90.90
2018-07-30T00:31:17.013Z,91.20
2018-07-30T00:33:45.565Z,91.50
2018-07-30T00:36:13.930Z,91.80
2018-07-30T00:38:42.336Z,92.20
2018-07-30T00:41:10.921Z,92.30
2018-07-30T00:43:39.392Z,92.60
2018-07-30T00:46:07.821Z,92.90
2018-07-30T00:48:37.077Z,93.30
2018-07-30T00:51:05.456Z,93.50
2018-07-30T00:53:33.873Z,93.90
2018-07-30T00:56:02.557Z,94.20
2018-07-30T00:58:31.040Z,94.50
2018-07-30T01:00:59.453Z,94.80
2018-07-30T01:03:28.152Z,95.20
2018-07-30T01:05:56.507Z,95.60
2018-07-30T01:08:24.889Z,95.90
2018-07-30T01:10:53.461Z,96.40
2018-07-30T01:15:49.980Z,97.40
2018-07-30T01:18:18.624Z,97.30
2018-07-30T01:20:47.035Z,97.60
2018-07-30T01:23:15.416Z,97.80
2018-07-30T01:25:43.956Z,98.10
2018-07-30T01:28:12.376Z,98.40
2018-07-30T01:30:40.749Z,98.50
2018-07-30T01:33:09.297Z,98.70
2018-07-30T01:35:37.689Z,98.90
2018-07-30T01:38:06.865Z,99.20
2018-07-30T01:40:35.464Z,99.50
2018-07-30T01:43:03.898Z,99.70
2018-07-30T01:45:32.303Z,99.90
2018-07-30T01:48:00.903Z,99.90
2018-07-30T01:50:29.325Z,99.90
2018-07-30T01:52:57.765Z,99.90
2018-07-30T01:55:26.361Z,99.90
2018-07-30T01:57:54.757Z,99.90
2018-07-30T02:02:51.465Z,99.90
2018-07-30T02:05:19.834Z,99.90
2018-07-30T02:07:48.244Z,99.90
2018-07-30T02:10:16.836Z,99.90
2018-07-30T02:12:45.210Z,99.90
2018-07-30T02:15:16.576Z,99.90
2018-07-30T02:17:45.125Z,99.90
2018-07-30T02:20:13.521Z,99.90
2018-07-30T02:22:42.077Z,99.90
2018-07-30T02:25:10.681Z,99.90
2018-07-30T02:27:39.068Z,99.90
2018-07-30T02:30:08.743Z,99.90
2018-07-30T02:32:37.565Z,99.90
2018-07-30T02:35:07.373Z,99.90
2018-07-30T02:37:36.060Z,99.90
2018-07-30T02:40:05.706Z,99.90
2018-07-30T02:42:34.166Z,99.90
2018-07-30T02:45:02.782Z,99.90
2018-07-30T02:47:31.177Z,99.90
2018-07-30T02:49:59.535Z,99.90
2018-07-30T02:52:28.097Z,99.90
2018-07-30T02:54:56.497Z,99.90
2018-07-30T02:57:24.906Z,99.90
2018-07-30T02:59:53.574Z,99.90
2018-07-30T03:02:21.971Z,99.90
2018-07-30T03:04:50.509Z,99.90
2018-07-30T03:09:47.312Z,99.90
2018-07-30T03:12:15.656Z,99.90
2018-07-30T03:14:44.317Z,99.90
2018-07-30T03:17:12.692Z,99.90
2018-07-30T03:19:41.113Z,99.90
2018-07-30T03:22:09.655Z,99.90
2018-07-30T03:24:38.054Z,99.90
2018-07-30T03:27:07.343Z,99.90
2018-07-30T03:29:35.875Z,99.90
2018-07-30T03:32:04.313Z,99.90
2018-07-30T03:34:32.792Z,99.90
2018-07-30T03:37:01.393Z,99.90
2018-07-30T03:39:29.761Z,99.90
2018-07-30T03:41:58.172Z,99.90
2018-07-30T03:44:26.806Z,99.90
2018-07-30T03:46:55.189Z,99.90
2018-07-30T03:49:23.536Z,99.90
2018-07-30T03:51:52.061Z,99.90
2018-07-30T03:54:20.445Z,99.90
2018-07-30T03:56:48.834Z,99.90
2018-07-30T03:59:17.513Z,99.90
2018-07-30T04:01:45.929Z,99.90
2018-07-30T04:04:14.421Z,99.90
2018-07-30T04:06:42.977Z,99.90
2018-07-30T04:09:11.360Z,99.90
2018-07-30T04:11:39.789Z,99.90
2018-07-30T04:14:08.433Z,99.90
2018-07-30T04:16:42.192Z,99.90
2018-07-30T04:19:10.836Z,99.90
2018-07-30T04:24:07.593Z,99.90
2018-07-30T04:26:36.374Z,99.90
2018-07-30T04:29:04.977Z,99.90
2018-07-30T04:31:33.406Z,99.90
2018-07-30T04:34:02.819Z,99.90
2018-07-30T04:36:31.201Z,99.90
2018-07-30T04:38:59.704Z,99.90
2018-07-30T04:41:28.256Z,99.90
2018-07-30T04:43:56.697Z,99.90
2018-07-30T04:48:53.649Z,99.90
2018-07-30T04:51:22.129Z,99.90
2018-07-30T04:53:50.577Z,99.90
2018-07-30T04:56:19.213Z,99.90
2018-07-30T04:58:47.617Z,99.90
2018-07-30T05:01:15.969Z,99.90
2018-07-30T05:03:44.561Z,99.90
2018-07-30T05:06:13.101Z,99.90
2018-07-30T05:08:41.500Z,99.90
2018-07-30T05:11:10.411Z,99.90
2018-07-30T05:13:38.848Z,99.90
2018-07-30T05:16:07.941Z,99.90
2018-07-30T05:18:36.577Z,99.90
2018-07-30T05:21:04.993Z,99.90
2018-07-30T05:23:33.385Z,99.90
2018-07-30T05:26:01.965Z,99.90
2018-07-30T05:28:30.365Z,99.90
2018-07-30T05:30:58.968Z,99.90
2018-07-30T05:33:27.633Z,99.90
2018-07-30T05:35:56.001Z,99.90
2018-07-30T05:38:24.374Z,99.90
2018-07-30T05:40:52.969Z,99.90
2018-07-30T05:43:21.401Z,99.90
2018-07-30T05:45:49.757Z,99.90
2018-07-30T05:50:46.402Z,99.90
2018-07-30T05:53:14.812Z,99.90
2018-07-30T05:55:43.396Z,99.90
2018-07-30T05:58:11.782Z,99.90
2018-07-30T06:00:40.161Z,99.90
2018-07-30T06:03:08.836Z,99.90
2018-07-30T06:05:38.135Z,99.90
2018-07-30T06:08:06.761Z,99.90
2018-07-30T06:10:35.441Z,99.90
2018-07-30T06:13:03.877Z,99.90
2018-07-30T06:15:32.257Z,99.90
2018-07-30T06:18:00.832Z,99.90
2018-07-30T06:20:29.213Z,99.90
2018-07-30T06:22:57.606Z,99.90
2018-07-30T06:25:26.297Z,99.90
2018-07-30T06:27:54.670Z,99.90
2018-07-30T06:30:23.057Z,99.90
2018-07-30T06:32:51.679Z,99.90
2018-07-30T06:35:20.046Z,99.90
2018-07-30T06:37:48.440Z,99.50
2018-07-30T06:40:16.970Z,99.80
2018-07-30T06:42:45.318Z,99.80
2018-07-30T06:45:13.661Z,98.20
2018-07-30T06:47:42.242Z,96.30
2018-07-30T06:50:10.641Z,94.20
2018-07-30T06:52:39.085Z,92.70
2018-07-30T06:55:08.973Z,91.20
2018-07-30T07:00:08.309Z,83.70
2018-07-30T07:02:36.733Z,79.30
2018-07-30T07:05:05.626Z,78.80
2018-07-30T07:07:34.230Z,78.50
2018-07-30T07:10:02.646Z,75.10
2018-07-30T07:12:31.050Z,71.50
2018-07-30T07:14:59.637Z,68.90
2018-07-30T07:17:28.050Z,68.00
2018-07-30T07:19:56.450Z,64.90
2018-07-30T07:22:25.069Z,62.60
2018-07-30T07:24:53.425Z,62.60
2018-07-30T07:27:21.868Z,64.80
2018-07-30T07:29:50.543Z,64.60
2018-07-30T07:32:18.977Z,64.10
2018-07-30T07:34:47.426Z,62.50
2018-07-30T07:37:16.018Z,63.80
2018-07-30T07:39:44.442Z,64.60
2018-07-30T07:42:12.858Z,63.40
2018-07-30T07:44:41.471Z,63.90
2018-07-30T07:47:09.887Z,63.50
2018-07-30T07:49:39.217Z,62.30
2018-07-30T07:52:07.896Z,61.00
2018-07-30T07:54:36.379Z,61.70
2018-07-30T07:57:04.901Z,62.50
2018-07-30T07:59:33.553Z,63.40
2018-07-30T08:02:02.021Z,61.60
2018-07-30T08:04:30.454Z,61.00
2018-07-30T08:06:59.133Z,60.00
2018-07-30T08:09:27.533Z,60.80
2018-07-30T08:11:55.943Z,60.40
2018-07-30T08:14:24.702Z,61.10
2018-07-30T08:16:53.118Z,60.80
2018-07-30T08:19:21.501Z,60.90
2018-07-30T08:21:50.193Z,62.40
2018-07-30T08:24:18.585Z,61.80
2018-07-30T08:26:46.994Z,59.50
2018-07-30T08:29:15.578Z,60.30
2018-07-30T08:31:44.025Z,59.30
2018-07-30T08:34:12.534Z,59.40
2018-07-30T08:36:41.106Z,57.20
2018-07-30T08:39:10.813Z,56.60
2018-07-30T08:41:39.524Z,57.50
2018-07-30T08:44:08.325Z,54.40
2018-07-30T08:46:36.708Z,55.80
2018-07-30T08:51:33.642Z,52.80
2018-07-30T08:54:02.074Z,53.70
2018-07-30T08:56:30.655Z,54.20
2018-07-30T08:58:59.129Z,54.80
2018-07-30T09:01:27.573Z,54.50
2018-07-30T09:03:56.067Z,53.70
2018-07-30T09:08:53.055Z,55.40
2018-07-30T09:11:21.564Z,55.70
2018-07-30T09:13:50.299Z,56.00
2018-07-30T09:16:18.950Z,56.10
2018-07-30T09:18:47.368Z,55.70
2018-07-30T09:21:16.284Z,57.10
2018-07-30T09:23:45.058Z,56.40
2018-07-30T09:26:13.552Z,57.00
2018-07-30T09:28:42.190Z,56.60
2018-07-30T09:31:10.633Z,56.60
2018-07-30T09:33:39.655Z,56.40
2018-07-30T09:36:08.270Z,56.30
2018-07-30T09:38:36.690Z,56.30
2018-07-30T09:41:05.061Z,56.30
2018-07-30T09:43:33.733Z,58.00
2018-07-30T09:46:02.129Z,57.50
2018-07-30T09:48:30.554Z,57.90
2018-07-30T09:50:59.241Z,57.10
2018-07-30T09:53:27.661Z,57.30
2018-07-30T09:55:56.106Z,57.20
2018-07-30T09:58:24.625Z,58.10
2018-07-30T10:01:29.062Z,57.30
2018-07-30T10:03:58.649Z,57.20
2018-07-30T10:06:27.061Z,56.90
2018-07-30T10:08:55.708Z,56.60
2018-07-30T10:11:24.553Z,56.80
2018-07-30T10:13:53.822Z,58.00
2018-07-30T10:18:50.558Z,60.20
2018-07-30T10:21:18.939Z,59.20
2018-07-30T10:23:47.393Z,58.00
2018-07-30T10:26:15.984Z,57.60
2018-07-30T10:31:12.698Z,59.10
2018-07-30T10:33:41.297Z,59.60
2018-07-30T10:36:10.188Z,59.60
2018-07-30T10:38:38.562Z,59.00
2018-07-30T10:41:07.197Z,59.00
2018-07-30T10:43:35.602Z,58.40
2018-07-30T10:46:03.996Z,56.20
2018-07-30T10:48:32.721Z,55.60
2018-07-30T10:51:01.100Z,56.10
2018-07-30T10:53:29.716Z,56.70
2018-07-30T10:55:58.444Z,57.60
2018-07-30T10:58:26.862Z,56.70
2018-07-30T11:00:56.240Z,55.90
2018-07-30T11:03:24.832Z,56.20
2018-07-30T11:05:53.284Z,55.70
2018-07-30T11:08:21.678Z,55.40
2018-07-30T11:10:50.427Z,54.60
2018-07-30T11:13:18.793Z,54.00
2018-07-30T11:18:15.513Z,54.40
2018-07-30T11:20:43.884Z,55.60
2018-07-30T11:23:12.254Z,54.90
2018-07-30T11:28:09.040Z,56.50
2018-07-30T11:30:37.397Z,56.90
2018-07-30T11:33:06.237Z,57.30
2018-07-30T11:35:34.922Z,57.60
2018-07-30T11:40:31.754Z,57.60
2018-07-30T11:43:00.212Z,56.10
2018-07-30T11:45:28.573Z,56.10
2018-07-30T11:47:57.253Z,56.80
2018-07-30T11:50:25.653Z,56.80
2018-07-30T11:52:54.009Z,55.80
2018-07-30T11:55:22.561Z,55.60
2018-07-30T11:57:50.958Z,56.00
2018-07-30T12:02:47.678Z,57.10
2018-07-30T12:05:16.077Z,55.60
2018-07-30T12:07:44.501Z,55.60
2018-07-30T12:10:13.344Z,55.90
2018-07-30T12:12:41.773Z,56.50
2018-07-30T12:17:38.886Z,55.10
2018-07-30T12:20:07.288Z,54.20
2018-07-30T12:22:36.127Z,52.70
2018-07-30T12:25:04.833Z,52.80
2018-07-30T12:27:33.180Z,53.60
2018-07-30T12:30:01.558Z,53.30
2018-07-30T12:34:58.297Z,54.40
2018-07-30T12:37:26.682Z,54.50
2018-07-30T12:39:55.495Z,55.10
2018-07-30T12:42:23.872Z,55.10
2018-07-30T12:44:52.293Z,56.20
2018-07-30T12:47:20.926Z,55.50
2018-07-30T12:49:49.529Z,54.40
2018-07-30T12:52:17.889Z,55.10
2018-07-30T12:54:46.456Z,54.50
2018-07-30T12:57:14.847Z,55.10
2018-07-30T12:59:43.245Z,55.60
2018-07-30T13:04:40.693Z,55.60
2018-07-30T13:07:09.049Z,56.20
2018-07-30T13:09:37.577Z,56.20
2018-07-30T13:12:05.973Z,56.10
2018-07-30T13:14:34.421Z,55.60
2018-07-30T13:17:02.985Z,57.70
2018-07-30T13:19:31.470Z,56.30
2018-07-30T13:21:59.909Z,55.70
2018-07-30T13:26:56.821Z,55.10
2018-07-30T13:31:53.646Z,56.30
2018-07-30T13:34:23.077Z,56.60
2018-07-30T13:36:51.443Z,57.20
2018-07-30T13:39:20.034Z,57.40
2018-07-30T13:41:48.405Z,57.60
2018-07-30T13:44:16.801Z,58.40
2018-07-30T13:46:45.425Z,57.80
2018-07-30T13:49:13.773Z,56.10
2018-07-30T13:54:12.274Z,53.40
2018-07-30T13:56:41.290Z,54.00
2018-07-30T13:59:09.673Z,54.60
2018-07-30T14:01:38.236Z,54.20
2018-07-30T14:04:06.904Z,54.60
2018-07-30T14:06:35.446Z,53.60
2018-07-30T14:09:04.981Z,53.70
2018-07-30T14:11:33.457Z,54.10
2018-07-30T14:14:01.867Z,55.10
2018-07-30T14:18:58.651Z,54.50
2018-07-30T14:21:27.025Z,54.40
2018-07-30T14:23:55.622Z,53.10
2018-07-30T14:26:24.037Z,53.50
2018-07-30T14:28:52.461Z,53.50
2018-07-30T14:31:21.083Z,53.10
2018-07-30T14:33:49.619Z,53.10
2018-07-30T14:38:46.453Z,52.50
2018-07-30T14:41:14.889Z,53.10
2018-07-30T14:46:11.634Z,52.40
2018-07-30T14:48:40.090Z,52.20
2018-07-30T14:51:08.515Z,52.10
2018-07-30T14:53:37.211Z,52.30
2018-07-30T14:56:05.712Z,52.30
2018-07-30T14:58:34.129Z,51.60
2018-07-30T15:03:30.974Z,52.40
2018-07-30T15:05:59.423Z,51.60
2018-07-30T15:08:28.018Z,52.20
2018-07-30T15:10:56.472Z,52.80
2018-07-30T15:13:24.903Z,53.40
2018-07-30T15:15:53.533Z,53.50
2018-07-30T15:18:21.952Z,54.30
2018-07-30T15:20:50.337Z,53.80
2018-07-30T15:23:19.104Z,53.50
2018-07-30T15:25:47.547Z,53.80
2018-07-30T15:28:15.905Z,53.80
2018-07-30T15:30:44.492Z,53.90
2018-07-30T15:33:12.892Z,52.70
2018-07-30T15:38:09.982Z,51.80
2018-07-30T15:40:38.429Z,52.40
2018-07-30T15:43:06.961Z,52.70
2018-07-30T15:45:35.557Z,53.00
2018-07-30T15:48:03.955Z,52.50
2018-07-30T15:50:32.384Z,51.80
2018-07-30T15:53:01.070Z,52.10
2018-07-30T15:55:29.789Z,52.80
2018-07-30T15:57:58.222Z,53.10
2018-07-30T16:00:27.014Z,53.30
2018-07-30T16:02:55.479Z,52.20
2018-07-30T16:05:23.898Z,52.70
2018-07-30T16:07:52.626Z,53.70
2018-07-30T16:10:21.017Z,53.70
2018-07-30T16:12:49.393Z,52.70
2018-07-30T16:15:18.144Z,52.20
2018-07-30T16:20:14.826Z,52.90
2018-07-30T16:25:11.843Z,52.90
2018-07-30T16:27:40.232Z,52.50
2018-07-30T16:30:09.691Z,53.80
2018-07-30T16:32:38.474Z,54.30
2018-07-30T16:35:07.926Z,54.50
2018-07-30T16:37:36.480Z,54.40
2018-07-30T16:40:05.525Z,54.40
2018-07-30T16:42:33.970Z,56.90
2018-07-30T16:45:02.674Z,55.70
2018-07-30T16:47:31.142Z,55.00
2018-07-30T16:49:59.725Z,55.60
2018-07-30T16:52:28.417Z,54.10
2018-07-30T16:54:56.805Z,54.70
2018-07-30T16:59:53.647Z,55.90
2018-07-30T17:02:22.118Z,54.80
2018-07-30T17:04:50.610Z,56.40
2018-07-30T17:07:19.661Z,55.20
2018-07-30T17:09:48.026Z,57.60
2018-07-30T17:12:16.424Z,56.20
2018-07-30T17:14:45.031Z,55.20
2018-07-30T17:17:13.517Z,55.60
2018-07-30T17:19:42.377Z,56.10
2018-07-30T17:22:11.006Z,55.80
2018-07-30T17:24:39.453Z,58.90
2018-07-30T17:27:07.891Z,57.20
2018-07-30T17:29:36.676Z,56.90
2018-07-30T17:32:05.137Z,55.90
2018-07-30T17:37:01.854Z,57.30
2018-07-30T17:39:30.331Z,56.20
2018-07-30T17:41:58.816Z,56.30
2018-07-30T17:46:55.596Z,57.60
2018-07-30T17:49:23.984Z,57.40
2018-07-30T17:51:52.569Z,59.80
2018-07-30T17:56:49.101Z,57.90
2018-07-30T17:59:18.797Z,56.50
2018-07-30T18:01:47.240Z,57.40
2018-07-30T18:04:15.641Z,57.20
2018-07-30T18:09:12.460Z,56.70
2018-07-30T18:11:40.846Z,56.70
2018-07-30T18:14:09.506Z,57.10
2018-07-30T18:16:37.909Z,57.00
2018-07-30T18:19:06.336Z,57.00
2018-07-30T18:21:34.961Z,57.20
2018-07-30T18:24:18.111Z,56.90
2018-07-30T18:26:46.780Z,57.20
2018-07-30T18:29:15.213Z,57.30
2018-07-30T18:31:43.918Z,57.30
2018-07-30T18:34:12.768Z,57.40
2018-07-30T18:36:41.349Z,57.60
2018-07-30T18:39:09.751Z,57.50
2018-07-30T18:41:38.368Z,57.60
2018-07-30T18:44:06.857Z,58.00
2018-07-30T18:46:35.280Z,57.90
2018-07-30T18:49:04.021Z,57.90
2018-07-30T18:51:32.477Z,58.20
2018-07-30T18:54:01.051Z,59.20
2018-07-30T18:56:29.743Z,58.70
2018-07-30T18:58:58.077Z,59.30
2018-07-30T19:01:26.701Z,58.70
2018-07-30T19:03:55.509Z,60.40
2018-07-30T19:06:23.988Z,59.70
2018-07-30T19:08:52.335Z,59.40
2018-07-30T19:11:20.993Z,59.80
2018-07-30T19:13:49.368Z,59.70
2018-07-30T19:16:17.869Z,59.90
2018-07-30T19:18:46.578Z,60.60
2018-07-30T19:21:15.025Z,61.00
2018-07-30T19:26:11.739Z,60.90
2018-07-30T19:28:40.096Z,61.10
2018-07-30T19:31:08.596Z,61.30
2018-07-30T19:33:37.229Z,61.40
2018-07-30T19:36:05.761Z,61.50
2018-07-30T19:38:34.157Z,62.00
2018-07-30T19:41:02.804Z,62.50
2018-07-30T19:43:31.284Z,62.10
2018-07-30T19:45:59.765Z,62.30
2018-07-30T19:48:29.248Z,62.60
2018-07-30T19:53:25.782Z,62.90
2018-07-30T19:55:54.328Z,62.90
2018-07-30T19:58:22.888Z,63.10
2018-07-30T20:00:51.176Z,63.40
2018-07-30T20:03:19.777Z,63.60
2018-07-30T20:05:48.238Z,63.60
2018-07-30T20:08:16.693Z,63.80
2018-07-30T20:10:45.340Z,63.80
2018-07-30T20:13:13.777Z,64.10
2018-07-30T20:18:11.837Z,64.60
2018-07-30T20:20:40.239Z,64.70
2018-07-30T20:23:08.618Z,65.00
2018-07-30T20:25:37.245Z,65.10
2018-07-30T20:28:05.665Z,65.40
2018-07-30T20:30:34.104Z,65.60
2018-07-30T20:33:02.813Z,65.90
2018-07-30T20:35:31.201Z,66.10
2018-07-30T20:37:59.626Z,66.40
2018-07-30T20:40:28.293Z,66.70
2018-07-30T20:42:56.736Z,66.80
2018-07-30T20:45:25.213Z,66.60
2018-07-30T20:47:53.855Z,66.80
2018-07-30T20:50:22.237Z,66.90
2018-07-30T20:52:50.653Z,66.90
2018-07-30T20:55:19.232Z,67.00
2018-07-30T20:57:47.624Z,67.10
2018-07-30T21:00:16.614Z,67.30
2018-07-30T21:02:45.230Z,67.30
2018-07-30T21:05:13.630Z,67.50
2018-07-30T21:07:42.045Z,67.50
2018-07-30T21:10:10.713Z,67.70
2018-07-30T21:12:39.078Z,67.80
2018-07-30T21:15:07.542Z,67.90
2018-07-30T21:17:36.501Z,68.00
2018-07-30T21:20:05.365Z,68.30
2018-07-30T21:22:33.728Z,68.40
2018-07-30T21:25:02.389Z,68.40
2018-07-30T21:27:30.786Z,68.50
2018-07-30T21:29:59.181Z,68.70
2018-07-30T21:32:27.865Z,69.00
2018-07-30T21:34:56.274Z,68.90
2018-07-30T21:37:24.766Z,69.00
2018-07-30T21:39:53.549Z,69.20
2018-07-30T21:42:21.965Z,69.40
2018-07-30T21:44:50.421Z,69.60
2018-07-30T21:47:19.050Z,70.00
2018-07-30T21:49:47.432Z,70.10
2018-07-30T21:52:15.820Z,70.20
2018-07-30T21:54:44.462Z,70.40
2018-07-30T21:57:13.779Z,70.60
2018-07-30T22:04:38.518Z,71.50
2018-07-30T22:07:06.946Z,71.70
2018-07-30T22:09:35.485Z,72.10
2018-07-30T22:12:03.929Z,72.20
2018-07-30T22:14:32.241Z,72.40
2018-07-30T22:17:00.697Z,72.70
2018-07-30T22:19:29.079Z,72.90
2018-07-30T22:21:57.449Z,73.10
2018-07-30T22:24:26.065Z,74.00
2018-07-30T22:26:54.471Z,73.50
2018-07-30T22:29:22.873Z,73.80
2018-07-30T22:34:19.573Z,74.30
2018-07-30T22:36:47.957Z,74.50
2018-07-30T22:39:16.569Z,74.60
2018-07-30T22:41:45.300Z,74.90
2018-07-30T22:44:14.006Z,75.20
2018-07-30T22:46:42.673Z,75.60
2018-07-30T22:49:11.140Z,75.80
2018-07-30T22:51:39.541Z,75.90
2018-07-30T22:54:08.109Z,76.20
2018-07-30T22:56:36.520Z,76.50
2018-07-30T22:59:04.969Z,77.00
2018-07-30T23:01:33.590Z,77.30
2018-07-30T23:04:02.077Z,77.70
2018-07-30T23:06:30.853Z,77.80
2018-07-30T23:08:59.961Z,78.10
2018-07-30T23:11:28.352Z,78.50
2018-07-30T23:13:56.748Z,78.70
2018-07-30T23:16:25.400Z,79.00
2018-07-30T23:18:53.912Z,79.50
2018-07-30T23:21:22.272Z,79.70
2018-07-30T23:23:50.833Z,80.00
2018-07-30T23:26:19.236Z,80.40
2018-07-30T23:28:47.822Z,80.60
2018-07-30T23:33:44.542Z,80.90
2018-07-30T23:36:14.340Z,80.80
2018-07-30T23:38:42.972Z,80.90
2018-07-30T23:41:11.313Z,80.90
2018-07-30T23:43:40.195Z,81.20
2018-07-30T23:46:08.805Z,81.20
2018-07-30T23:51:05.317Z,82.60
2018-07-30T23:53:33.945Z,82.30
2018-07-30T23:56:02.413Z,82.80
2018-07-30T23:58:30.833Z,83.20
